sensor_id;sensor_type;location;lat;lon;timestamp;temperature;humidity
29501;DHT22;16450;50.288;10.966;2023-12-29T00:02:47;7.70;99.90
29501;DHT22;16450;50.288;10.966;2023-12-29T00:05:49;7.70;99.90
29501;DHT22;16450;50.288;10.966;2023-12-29T00:08:51;7.70;99.90
29501;DHT22;16450;50.288;10.966;2023-12-29T00:11:53;7.70;99.90
29501;DHT22;16450;50.288;10.966;2023-12-29T00:14:56;7.80;99.90
29501;DHT22;16450;50.288;10.966;2023-12-29T00:17:57;7.80;99.90
29501;DHT22;16450;50.288;10.966;2023-12-29T00:21:00;7.80;99.90
29501;DHT22;16450;50.288;10.966;2023-12-29T00:24:08;7.80;99.90
29501;DHT22;16450;50.288;10.966;2023-12-29T00:27:10;7.80;99.90
29501;DHT22;16450;50.288;10.966;2023-12-29T00:30:12;7.80;99.90
29501;DHT22;16450;50.288;10.966;2023-12-29T00:33:14;7.80;99.90
29501;DHT22;16450;50.288;10.966;2023-12-29T00:36:18;7.80;99.90
29501;DHT22;16450;50.288;10.966;2023-12-29T00:39:20;7.90;99.90
29501;DHT22;16450;50.288;10.966;2023-12-29T00:42:30;7.90;99.90
29501;DHT22;16450;50.288;10.966;2023-12-29T00:45:31;7.90;99.90
29501;DHT22;16450;50.288;10.966;2023-12-29T00:48:37;7.90;99.90
29501;DHT22;16450;50.288;10.966;2023-12-29T00:51:40;8.00;99.90
29501;DHT22;16450;50.288;10.966;2023-12-29T00:54:44;8.00;99.90
29501;DHT22;16450;50.288;10.966;2023-12-29T00:57:46;8.00;99.90
29501;DHT22;16450;50.288;10.966;2023-12-29T01:00:49;8.00;99.90
29501;DHT22;16450;50.288;10.966;2023-12-29T01:03:52;8.00;99.90
29501;DHT22;16450;50.288;10.966;2023-12-29T01:06:56;8.00;99.90
29501;DHT22;16450;50.288;10.966;2023-12-29T01:09:58;8.00;99.90
29501;DHT22;16450;50.288;10.966;2023-12-29T01:13:01;8.00;99.90
29501;DHT22;16450;50.288;10.966;2023-12-29T01:16:03;8.00;99.90
29501;DHT22;16450;50.288;10.966;2023-12-29T01:19:05;8.00;99.90
29501;DHT22;16450;50.288;10.966;2023-12-29T01:22:07;8.00;99.90
29501;DHT22;16450;50.288;10.966;2023-12-29T01:25:09;7.90;99.90
29501;DHT22;16450;50.288;10.966;2023-12-29T01:28:11;7.90;99.90
29501;DHT22;16450;50.288;10.966;2023-12-29T01:31:13;7.90;99.90
29501;DHT22;16450;50.288;10.966;2023-12-29T01:34:15;7.80;99.90
29501;DHT22;16450;50.288;10.966;2023-12-29T01:37:17;7.80;99.90
29501;DHT22;16450;50.288;10.966;2023-12-29T01:40:19;7.70;99.90
29501;DHT22;16450;50.288;10.966;2023-12-29T01:43:21;7.70;99.90
29501;DHT22;16450;50.288;10.966;2023-12-29T01:46:29;7.60;99.90
29501;DHT22;16450;50.288;10.966;2023-12-29T01:49:31;7.60;99.90
29501;DHT22;16450;50.288;10.966;2023-12-29T01:52:35;7.50;99.90
29501;DHT22;16450;50.288;10.966;2023-12-29T01:55:37;7.50;99.90
29501;DHT22;16450;50.288;10.966;2023-12-29T01:58:39;7.40;99.90
29501;DHT22;16450;50.288;10.966;2023-12-29T02:01:42;7.30;99.90
29501;DHT22;16450;50.288;10.966;2023-12-29T02:04:45;7.30;99.90
29501;DHT22;16450;50.288;10.966;2023-12-29T02:07:50;7.20;99.90
29501;DHT22;16450;50.288;10.966;2023-12-29T02:10:53;7.20;99.90
29501;DHT22;16450;50.288;10.966;2023-12-29T02:13:55;7.10;99.90
29501;DHT22;16450;50.288;10.966;2023-12-29T02:17:18;7.10;99.90
29501;DHT22;16450;50.288;10.966;2023-12-29T02:20:22;7.00;99.90
29501;DHT22;16450;50.288;10.966;2023-12-29T02:23:24;7.00;99.90
29501;DHT22;16450;50.288;10.966;2023-12-29T02:26:29;7.00;99.90
29501;DHT22;16450;50.288;10.966;2023-12-29T02:29:33;6.90;99.90
29501;DHT22;16450;50.288;10.966;2023-12-29T02:32:38;6.90;99.90
29501;DHT22;16450;50.288;10.966;2023-12-29T02:35:43;6.90;99.90
29501;DHT22;16450;50.288;10.966;2023-12-29T02:38:47;6.90;99.90
29501;DHT22;16450;50.288;10.966;2023-12-29T02:41:49;6.90;99.90
29501;DHT22;16450;50.288;10.966;2023-12-29T02:44:51;6.80;99.90
29501;DHT22;16450;50.288;10.966;2023-12-29T02:47:53;6.80;99.90
29501;DHT22;16450;50.288;10.966;2023-12-29T02:50:54;6.80;99.90
29501;DHT22;16450;50.288;10.966;2023-12-29T02:53:57;6.80;99.90
29501;DHT22;16450;50.288;10.966;2023-12-29T02:56:59;6.80;99.90
29501;DHT22;16450;50.288;10.966;2023-12-29T03:00:00;6.80;99.90
29501;DHT22;16450;50.288;10.966;2023-12-29T03:03:02;6.80;99.90
29501;DHT22;16450;50.288;10.966;2023-12-29T03:06:04;6.80;99.90
29501;DHT22;16450;50.288;10.966;2023-12-29T03:09:06;6.80;99.90
29501;DHT22;16450;50.288;10.966;2023-12-29T03:12:08;6.80;99.90
29501;DHT22;16450;50.288;10.966;2023-12-29T03:15:11;6.80;99.90
29501;DHT22;16450;50.288;10.966;2023-12-29T03:18:13;6.80;99.90
29501;DHT22;16450;50.288;10.966;2023-12-29T03:21:15;6.80;99.90
29501;DHT22;16450;50.288;10.966;2023-12-29T03:24:17;6.90;99.90
29501;DHT22;16450;50.288;10.966;2023-12-29T03:27:19;6.90;99.90
29501;DHT22;16450;50.288;10.966;2023-12-29T03:30:20;6.90;99.90
29501;DHT22;16450;50.288;10.966;2023-12-29T03:33:22;7.00;99.90
29501;DHT22;16450;50.288;10.966;2023-12-29T03:36:24;7.00;99.90
29501;DHT22;16450;50.288;10.966;2023-12-29T03:39:26;7.00;99.90
29501;DHT22;16450;50.288;10.966;2023-12-29T03:42:28;7.00;99.90
29501;DHT22;16450;50.288;10.966;2023-12-29T03:45:30;7.00;99.90
29501;DHT22;16450;50.288;10.966;2023-12-29T03:48:32;7.00;99.90
29501;DHT22;16450;50.288;10.966;2023-12-29T03:51:34;7.10;99.90
29501;DHT22;16450;50.288;10.966;2023-12-29T03:54:36;7.00;99.90
29501;DHT22;16450;50.288;10.966;2023-12-29T03:57:38;7.10;99.90
29501;DHT22;16450;50.288;10.966;2023-12-29T04:00:40;7.10;99.90
29501;DHT22;16450;50.288;10.966;2023-12-29T04:03:43;7.10;99.90
29501;DHT22;16450;50.288;10.966;2023-12-29T04:06:46;7.10;99.90
29501;DHT22;16450;50.288;10.966;2023-12-29T04:09:47;7.10;99.90
29501;DHT22;16450;50.288;10.966;2023-12-29T04:12:49;7.10;99.90
29501;DHT22;16450;50.288;10.966;2023-12-29T04:15:51;7.10;99.90
29501;DHT22;16450;50.288;10.966;2023-12-29T04:18:53;7.20;99.90
29501;DHT22;16450;50.288;10.966;2023-12-29T04:21:55;7.20;99.90
29501;DHT22;16450;50.288;10.966;2023-12-29T04:24:57;7.20;99.90
29501;DHT22;16450;50.288;10.966;2023-12-29T04:27:59;7.20;99.90
29501;DHT22;16450;50.288;10.966;2023-12-29T04:31:01;7.20;99.90
29501;DHT22;16450;50.288;10.966;2023-12-29T04:34:03;7.20;99.90
29501;DHT22;16450;50.288;10.966;2023-12-29T04:37:05;7.30;99.90
29501;DHT22;16450;50.288;10.966;2023-12-29T04:40:07;7.20;99.90
29501;DHT22;16450;50.288;10.966;2023-12-29T04:43:09;7.30;99.90
29501;DHT22;16450;50.288;10.966;2023-12-29T04:46:12;7.30;99.90
29501;DHT22;16450;50.288;10.966;2023-12-29T04:49:14;7.30;99.90
29501;DHT22;16450;50.288;10.966;2023-12-29T04:52:16;7.30;99.90
29501;DHT22;16450;50.288;10.966;2023-12-29T04:55:18;7.30;99.90
29501;DHT22;16450;50.288;10.966;2023-12-29T04:58:20;7.30;99.90
29501;DHT22;16450;50.288;10.966;2023-12-29T05:01:22;7.30;99.90
29501;DHT22;16450;50.288;10.966;2023-12-29T05:04:24;7.30;99.90
29501;DHT22;16450;50.288;10.966;2023-12-29T05:07:26;7.30;99.90
29501;DHT22;16450;50.288;10.966;2023-12-29T05:10:28;7.30;99.90
29501;DHT22;16450;50.288;10.966;2023-12-29T05:13:30;7.40;99.90
29501;DHT22;16450;50.288;10.966;2023-12-29T05:16:32;7.40;99.90
29501;DHT22;16450;50.288;10.966;2023-12-29T05:19:34;7.40;99.90
29501;DHT22;16450;50.288;10.966;2023-12-29T05:22:36;7.40;99.90
29501;DHT22;16450;50.288;10.966;2023-12-29T05:25:38;7.40;99.90
29501;DHT22;16450;50.288;10.966;2023-12-29T05:28:40;7.40;99.90
29501;DHT22;16450;50.288;10.966;2023-12-29T05:31:42;7.50;99.90
29501;DHT22;16450;50.288;10.966;2023-12-29T05:34:44;7.50;99.90
29501;DHT22;16450;50.288;10.966;2023-12-29T05:37:46;7.50;99.90
29501;DHT22;16450;50.288;10.966;2023-12-29T05:40:48;7.50;99.90
29501;DHT22;16450;50.288;10.966;2023-12-29T05:43:50;7.50;99.90
29501;DHT22;16450;50.288;10.966;2023-12-29T05:46:52;7.50;99.90
29501;DHT22;16450;50.288;10.966;2023-12-29T05:49:56;7.50;99.90
29501;DHT22;16450;50.288;10.966;2023-12-29T05:52:58;7.40;99.90
29501;DHT22;16450;50.288;10.966;2023-12-29T05:56:00;7.40;99.90
29501;DHT22;16450;50.288;10.966;2023-12-29T05:59:01;7.40;99.90
29501;DHT22;16450;50.288;10.966;2023-12-29T06:02:03;7.30;99.90
29501;DHT22;16450;50.288;10.966;2023-12-29T06:05:05;7.30;99.90
29501;DHT22;16450;50.288;10.966;2023-12-29T06:08:07;7.40;99.90
29501;DHT22;16450;50.288;10.966;2023-12-29T06:11:14;7.40;99.90
29501;DHT22;16450;50.288;10.966;2023-12-29T06:14:17;7.40;99.90
29501;DHT22;16450;50.288;10.966;2023-12-29T06:17:19;7.40;99.90
29501;DHT22;16450;50.288;10.966;2023-12-29T06:20:21;7.40;99.90
29501;DHT22;16450;50.288;10.966;2023-12-29T06:23:23;7.40;99.90
29501;DHT22;16450;50.288;10.966;2023-12-29T06:26:27;7.40;99.90
29501;DHT22;16450;50.288;10.966;2023-12-29T06:29:29;7.40;99.90
29501;DHT22;16450;50.288;10.966;2023-12-29T06:32:31;7.50;99.90
29501;DHT22;16450;50.288;10.966;2023-12-29T06:35:33;7.50;99.90
29501;DHT22;16450;50.288;10.966;2023-12-29T06:38:35;7.50;99.90
29501;DHT22;16450;50.288;10.966;2023-12-29T06:41:37;7.50;99.90
29501;DHT22;16450;50.288;10.966;2023-12-29T06:44:39;7.50;99.90
29501;DHT22;16450;50.288;10.966;2023-12-29T06:47:41;7.50;99.90
29501;DHT22;16450;50.288;10.966;2023-12-29T06:50:43;7.50;99.90
29501;DHT22;16450;50.288;10.966;2023-12-29T06:53:48;7.50;99.90
29501;DHT22;16450;50.288;10.966;2023-12-29T06:56:50;7.60;99.90
29501;DHT22;16450;50.288;10.966;2023-12-29T06:59:52;7.50;99.90
29501;DHT22;16450;50.288;10.966;2023-12-29T07:02:53;7.50;99.90
29501;DHT22;16450;50.288;10.966;2023-12-29T07:05:55;7.50;99.90
29501;DHT22;16450;50.288;10.966;2023-12-29T07:08:57;7.50;99.90
29501;DHT22;16450;50.288;10.966;2023-12-29T07:11:59;7.50;99.90
29501;DHT22;16450;50.288;10.966;2023-12-29T07:15:01;7.60;99.90
29501;DHT22;16450;50.288;10.966;2023-12-29T07:18:03;7.50;99.90
29501;DHT22;16450;50.288;10.966;2023-12-29T07:21:06;7.50;99.90
29501;DHT22;16450;50.288;10.966;2023-12-29T07:24:08;7.50;99.90
29501;DHT22;16450;50.288;10.966;2023-12-29T07:27:09;7.50;99.90
29501;DHT22;16450;50.288;10.966;2023-12-29T07:30:12;7.50;99.90
29501;DHT22;16450;50.288;10.966;2023-12-29T07:33:14;7.50;99.90
29501;DHT22;16450;50.288;10.966;2023-12-29T07:36:16;7.40;99.90
29501;DHT22;16450;50.288;10.966;2023-12-29T07:39:19;7.40;99.90
29501;DHT22;16450;50.288;10.966;2023-12-29T07:42:21;7.50;99.90
29501;DHT22;16450;50.288;10.966;2023-12-29T07:45:23;7.40;99.90
29501;DHT22;16450;50.288;10.966;2023-12-29T07:48:24;7.40;99.90
29501;DHT22;16450;50.288;10.966;2023-12-29T07:51:26;7.50;99.90
29501;DHT22;16450;50.288;10.966;2023-12-29T07:54:28;7.50;99.90
29501;DHT22;16450;50.288;10.966;2023-12-29T07:57:30;7.50;99.90
29501;DHT22;16450;50.288;10.966;2023-12-29T08:00:33;7.50;99.90
29501;DHT22;16450;50.288;10.966;2023-12-29T08:03:35;7.50;99.90
29501;DHT22;16450;50.288;10.966;2023-12-29T08:06:38;7.60;99.90
29501;DHT22;16450;50.288;10.966;2023-12-29T08:09:40;7.60;99.90
29501;DHT22;16450;50.288;10.966;2023-12-29T08:12:42;7.60;99.90
29501;DHT22;16450;50.288;10.966;2023-12-29T08:15:44;7.60;99.90
29501;DHT22;16450;50.288;10.966;2023-12-29T08:18:48;7.60;99.90
29501;DHT22;16450;50.288;10.966;2023-12-29T08:21:51;7.70;99.90
29501;DHT22;16450;50.288;10.966;2023-12-29T08:24:53;7.70;99.90
29501;DHT22;16450;50.288;10.966;2023-12-29T08:27:58;7.70;99.90
29501;DHT22;16450;50.288;10.966;2023-12-29T08:31:00;7.70;99.90
29501;DHT22;16450;50.288;10.966;2023-12-29T08:34:04;7.70;99.90
29501;DHT22;16450;50.288;10.966;2023-12-29T08:37:06;7.80;99.90
29501;DHT22;16450;50.288;10.966;2023-12-29T08:40:08;7.80;99.90
29501;DHT22;16450;50.288;10.966;2023-12-29T08:43:10;7.80;99.90
29501;DHT22;16450;50.288;10.966;2023-12-29T08:46:12;7.80;99.90
29501;DHT22;16450;50.288;10.966;2023-12-29T08:49:14;7.90;99.90
29501;DHT22;16450;50.288;10.966;2023-12-29T08:52:16;7.90;99.90
29501;DHT22;16450;50.288;10.966;2023-12-29T08:55:18;7.90;99.90
29501;DHT22;16450;50.288;10.966;2023-12-29T08:58:20;8.00;99.90
29501;DHT22;16450;50.288;10.966;2023-12-29T09:01:24;8.00;99.90
29501;DHT22;16450;50.288;10.966;2023-12-29T09:04:26;8.00;99.90
29501;DHT22;16450;50.288;10.966;2023-12-29T09:07:28;8.30;99.90
29501;DHT22;16450;50.288;10.966;2023-12-29T09:10:32;8.10;99.90
29501;DHT22;16450;50.288;10.966;2023-12-29T09:13:33;8.20;99.90
29501;DHT22;16450;50.288;10.966;2023-12-29T09:16:36;8.20;99.90
29501;DHT22;16450;50.288;10.966;2023-12-29T09:19:38;8.20;99.90
29501;DHT22;16450;50.288;10.966;2023-12-29T09:22:41;8.30;99.90
29501;DHT22;16450;50.288;10.966;2023-12-29T09:25:43;8.30;99.90
29501;DHT22;16450;50.288;10.966;2023-12-29T09:28:45;8.40;99.90
29501;DHT22;16450;50.288;10.966;2023-12-29T09:31:48;8.40;99.90
29501;DHT22;16450;50.288;10.966;2023-12-29T09:34:51;8.40;99.90
29501;DHT22;16450;50.288;10.966;2023-12-29T09:37:53;8.40;99.90
29501;DHT22;16450;50.288;10.966;2023-12-29T09:40:59;8.50;99.90
29501;DHT22;16450;50.288;10.966;2023-12-29T09:44:01;8.50;99.90
29501;DHT22;16450;50.288;10.966;2023-12-29T09:47:08;8.50;99.90
29501;DHT22;16450;50.288;10.966;2023-12-29T09:50:12;8.50;99.90
29501;DHT22;16450;50.288;10.966;2023-12-29T09:53:14;8.60;99.90
29501;DHT22;16450;50.288;10.966;2023-12-29T09:56:16;8.60;99.90
29501;DHT22;16450;50.288;10.966;2023-12-29T09:59:19;8.60;99.90
29501;DHT22;16450;50.288;10.966;2023-12-29T10:02:22;8.60;99.90
29501;DHT22;16450;50.288;10.966;2023-12-29T10:05:25;8.70;99.90
29501;DHT22;16450;50.288;10.966;2023-12-29T10:08:27;8.70;99.90
29501;DHT22;16450;50.288;10.966;2023-12-29T10:11:30;8.70;99.90
29501;DHT22;16450;50.288;10.966;2023-12-29T10:14:41;8.70;99.90
29501;DHT22;16450;50.288;10.966;2023-12-29T10:21:33;8.70;99.90
29501;DHT22;16450;50.288;10.966;2023-12-29T10:24:38;8.70;99.90
29501;DHT22;16450;50.288;10.966;2023-12-29T10:27:40;8.70;99.90
29501;DHT22;16450;50.288;10.966;2023-12-29T10:30:42;8.70;99.90
29501;DHT22;16450;50.288;10.966;2023-12-29T10:33:44;8.70;99.90
29501;DHT22;16450;50.288;10.966;2023-12-29T10:36:52;8.70;99.90
29501;DHT22;16450;50.288;10.966;2023-12-29T10:39:55;8.70;99.90
29501;DHT22;16450;50.288;10.966;2023-12-29T10:42:58;8.80;99.90
29501;DHT22;16450;50.288;10.966;2023-12-29T10:46:07;8.80;99.90
29501;DHT22;16450;50.288;10.966;2023-12-29T10:49:11;8.70;99.90
29501;DHT22;16450;50.288;10.966;2023-12-29T10:52:14;8.70;99.90
29501;DHT22;16450;50.288;10.966;2023-12-29T10:55:16;8.80;99.90
29501;DHT22;16450;50.288;10.966;2023-12-29T10:58:18;8.80;99.90
29501;DHT22;16450;50.288;10.966;2023-12-29T11:01:22;8.70;99.90
29501;DHT22;16450;50.288;10.966;2023-12-29T11:04:25;8.80;99.90
29501;DHT22;16450;50.288;10.966;2023-12-29T11:07:35;8.80;99.90
29501;DHT22;16450;50.288;10.966;2023-12-29T11:10:37;8.90;99.90
29501;DHT22;16450;50.288;10.966;2023-12-29T11:13:39;8.90;99.90
29501;DHT22;16450;50.288;10.966;2023-12-29T11:16:43;9.00;99.90
29501;DHT22;16450;50.288;10.966;2023-12-29T11:19:46;9.00;99.90
29501;DHT22;16450;50.288;10.966;2023-12-29T11:22:50;9.00;99.90
29501;DHT22;16450;50.288;10.966;2023-12-29T11:25:52;9.10;99.90
29501;DHT22;16450;50.288;10.966;2023-12-29T11:28:54;9.10;99.90
29501;DHT22;16450;50.288;10.966;2023-12-29T11:31:57;9.10;99.90
29501;DHT22;16450;50.288;10.966;2023-12-29T11:35:13;9.10;99.90
29501;DHT22;16450;50.288;10.966;2023-12-29T11:44:56;9.10;99.90
29501;DHT22;16450;50.288;10.966;2023-12-29T11:47:57;9.10;99.90
29501;DHT22;16450;50.288;10.966;2023-12-29T11:51:27;9.10;99.90
29501;DHT22;16450;50.288;10.966;2023-12-29T11:54:29;9.20;99.90
29501;DHT22;16450;50.288;10.966;2023-12-29T11:57:31;9.20;99.90
29501;DHT22;16450;50.288;10.966;2023-12-29T12:00:45;9.20;99.90
29501;DHT22;16450;50.288;10.966;2023-12-29T12:03:48;9.20;99.90
29501;DHT22;16450;50.288;10.966;2023-12-29T12:06:50;9.20;99.90
29501;DHT22;16450;50.288;10.966;2023-12-29T12:09:52;9.20;99.90
29501;DHT22;16450;50.288;10.966;2023-12-29T12:13:46;9.20;99.90
29501;DHT22;16450;50.288;10.966;2023-12-29T12:16:49;9.20;99.90
29501;DHT22;16450;50.288;10.966;2023-12-29T12:19:56;9.20;99.90
29501;DHT22;16450;50.288;10.966;2023-12-29T12:22:59;9.20;99.90
29501;DHT22;16450;50.288;10.966;2023-12-29T12:26:03;9.20;99.90
29501;DHT22;16450;50.288;10.966;2023-12-29T12:29:07;9.30;99.90
29501;DHT22;16450;50.288;10.966;2023-12-29T12:32:09;9.20;99.90
29501;DHT22;16450;50.288;10.966;2023-12-29T12:35:15;9.30;99.90
29501;DHT22;16450;50.288;10.966;2023-12-29T12:38:21;9.20;99.90
29501;DHT22;16450;50.288;10.966;2023-12-29T12:41:26;9.20;99.90
29501;DHT22;16450;50.288;10.966;2023-12-29T12:44:29;9.20;99.90
29501;DHT22;16450;50.288;10.966;2023-12-29T12:47:50;9.30;99.90
29501;DHT22;16450;50.288;10.966;2023-12-29T12:50:52;9.30;99.90
29501;DHT22;16450;50.288;10.966;2023-12-29T12:53:58;9.30;99.90
29501;DHT22;16450;50.288;10.966;2023-12-29T12:57:00;9.30;99.90
29501;DHT22;16450;50.288;10.966;2023-12-29T13:00:03;9.20;99.90
29501;DHT22;16450;50.288;10.966;2023-12-29T13:03:07;9.20;99.90
29501;DHT22;16450;50.288;10.966;2023-12-29T13:06:10;9.30;99.90
29501;DHT22;16450;50.288;10.966;2023-12-29T13:09:12;9.20;99.90
29501;DHT22;16450;50.288;10.966;2023-12-29T13:12:14;9.20;99.90
29501;DHT22;16450;50.288;10.966;2023-12-29T13:15:19;9.20;99.90
29501;DHT22;16450;50.288;10.966;2023-12-29T13:18:30;9.20;99.90
29501;DHT22;16450;50.288;10.966;2023-12-29T13:21:33;9.20;99.90
29501;DHT22;16450;50.288;10.966;2023-12-29T13:24:36;9.20;99.90
29501;DHT22;16450;50.288;10.966;2023-12-29T13:27:44;9.20;99.90
29501;DHT22;16450;50.288;10.966;2023-12-29T13:30:47;9.20;99.90
29501;DHT22;16450;50.288;10.966;2023-12-29T13:34:01;9.20;99.90
29501;DHT22;16450;50.288;10.966;2023-12-29T13:37:14;9.20;99.90
29501;DHT22;16450;50.288;10.966;2023-12-29T13:40:27;9.20;99.90
29501;DHT22;16450;50.288;10.966;2023-12-29T13:43:36;9.30;99.90
29501;DHT22;16450;50.288;10.966;2023-12-29T13:46:40;9.30;99.90
29501;DHT22;16450;50.288;10.966;2023-12-29T13:49:42;9.20;99.90
29501;DHT22;16450;50.288;10.966;2023-12-29T13:52:45;9.30;99.90
29501;DHT22;16450;50.288;10.966;2023-12-29T13:55:47;9.30;99.90
29501;DHT22;16450;50.288;10.966;2023-12-29T13:58:51;9.30;99.90
29501;DHT22;16450;50.288;10.966;2023-12-29T14:01:53;9.30;99.90
29501;DHT22;16450;50.288;10.966;2023-12-29T14:08:40;9.30;99.90
29501;DHT22;16450;50.288;10.966;2023-12-29T14:11:47;9.30;99.90
29501;DHT22;16450;50.288;10.966;2023-12-29T14:14:49;9.30;99.90
29501;DHT22;16450;50.288;10.966;2023-12-29T14:17:50;9.30;99.90
29501;DHT22;16450;50.288;10.966;2023-12-29T14:20:59;9.30;99.90
29501;DHT22;16450;50.288;10.966;2023-12-29T14:24:12;9.40;99.90
29501;DHT22;16450;50.288;10.966;2023-12-29T14:27:14;9.40;99.90
29501;DHT22;16450;50.288;10.966;2023-12-29T14:30:19;9.40;99.90
29501;DHT22;16450;50.288;10.966;2023-12-29T14:33:21;9.40;99.90
29501;DHT22;16450;50.288;10.966;2023-12-29T14:36:23;9.40;99.90
29501;DHT22;16450;50.288;10.966;2023-12-29T14:39:25;9.40;99.90
29501;DHT22;16450;50.288;10.966;2023-12-29T14:42:27;9.40;99.90
29501;DHT22;16450;50.288;10.966;2023-12-29T14:45:29;9.30;99.90
29501;DHT22;16450;50.288;10.966;2023-12-29T14:48:31;9.40;99.90
29501;DHT22;16450;50.288;10.966;2023-12-29T14:51:33;9.30;99.90
29501;DHT22;16450;50.288;10.966;2023-12-29T14:54:35;9.30;99.90
29501;DHT22;16450;50.288;10.966;2023-12-29T14:57:39;9.30;99.90
29501;DHT22;16450;50.288;10.966;2023-12-29T15:00:44;9.30;99.90
29501;DHT22;16450;50.288;10.966;2023-12-29T15:03:48;9.30;99.90
29501;DHT22;16450;50.288;10.966;2023-12-29T15:06:50;9.30;99.90
29501;DHT22;16450;50.288;10.966;2023-12-29T15:09:52;9.30;99.90
29501;DHT22;16450;50.288;10.966;2023-12-29T15:12:54;9.30;99.90
29501;DHT22;16450;50.288;10.966;2023-12-29T15:16:00;9.30;99.90
29501;DHT22;16450;50.288;10.966;2023-12-29T15:19:02;9.20;99.90
29501;DHT22;16450;50.288;10.966;2023-12-29T15:22:05;9.30;99.90
29501;DHT22;16450;50.288;10.966;2023-12-29T15:25:08;9.30;99.90
29501;DHT22;16450;50.288;10.966;2023-12-29T15:28:10;9.30;99.90
29501;DHT22;16450;50.288;10.966;2023-12-29T15:31:12;9.30;99.90
29501;DHT22;16450;50.288;10.966;2023-12-29T15:34:16;9.30;99.90
29501;DHT22;16450;50.288;10.966;2023-12-29T15:37:18;9.20;99.90
29501;DHT22;16450;50.288;10.966;2023-12-29T15:40:21;9.20;99.90
29501;DHT22;16450;50.288;10.966;2023-12-29T15:43:23;9.30;99.90
29501;DHT22;16450;50.288;10.966;2023-12-29T15:46:25;9.20;99.90
29501;DHT22;16450;50.288;10.966;2023-12-29T15:49:27;9.20;99.90
29501;DHT22;16450;50.288;10.966;2023-12-29T15:52:29;9.30;99.90
29501;DHT22;16450;50.288;10.966;2023-12-29T15:55:31;9.30;99.90
29501;DHT22;16450;50.288;10.966;2023-12-29T15:58:33;9.30;99.90
29501;DHT22;16450;50.288;10.966;2023-12-29T16:01:35;9.20;99.90
29501;DHT22;16450;50.288;10.966;2023-12-29T16:04:37;9.20;99.90
29501;DHT22;16450;50.288;10.966;2023-12-29T16:07:40;9.20;99.90
29501;DHT22;16450;50.288;10.966;2023-12-29T16:10:42;9.20;99.90
29501;DHT22;16450;50.288;10.966;2023-12-29T16:13:44;9.20;99.90
29501;DHT22;16450;50.288;10.966;2023-12-29T16:16:46;9.20;99.90
29501;DHT22;16450;50.288;10.966;2023-12-29T16:19:48;9.20;99.90
29501;DHT22;16450;50.288;10.966;2023-12-29T16:22:50;9.20;99.90
29501;DHT22;16450;50.288;10.966;2023-12-29T16:25:51;9.20;99.90
29501;DHT22;16450;50.288;10.966;2023-12-29T16:28:53;9.10;99.90
29501;DHT22;16450;50.288;10.966;2023-12-29T16:31:55;9.20;99.90
29501;DHT22;16450;50.288;10.966;2023-12-29T16:34:57;9.10;99.90
29501;DHT22;16450;50.288;10.966;2023-12-29T16:37:59;9.10;99.90
29501;DHT22;16450;50.288;10.966;2023-12-29T16:41:01;9.10;99.90
29501;DHT22;16450;50.288;10.966;2023-12-29T16:44:03;9.10;99.90
29501;DHT22;16450;50.288;10.966;2023-12-29T16:47:06;9.10;99.90
29501;DHT22;16450;50.288;10.966;2023-12-29T16:50:08;9.10;99.90
29501;DHT22;16450;50.288;10.966;2023-12-29T16:53:10;9.10;99.90
29501;DHT22;16450;50.288;10.966;2023-12-29T16:56:12;9.10;99.90
29501;DHT22;16450;50.288;10.966;2023-12-29T16:59:15;9.20;99.90
29501;DHT22;16450;50.288;10.966;2023-12-29T17:02:17;9.20;99.90
29501;DHT22;16450;50.288;10.966;2023-12-29T17:05:18;9.20;99.90
29501;DHT22;16450;50.288;10.966;2023-12-29T17:08:20;9.20;99.90
29501;DHT22;16450;50.288;10.966;2023-12-29T17:11:22;9.20;99.90
29501;DHT22;16450;50.288;10.966;2023-12-29T17:14:24;9.20;99.90
29501;DHT22;16450;50.288;10.966;2023-12-29T17:17:26;9.20;99.90
29501;DHT22;16450;50.288;10.966;2023-12-29T17:20:27;9.20;99.90
29501;DHT22;16450;50.288;10.966;2023-12-29T17:23:31;9.30;99.90
29501;DHT22;16450;50.288;10.966;2023-12-29T17:26:33;9.20;99.90
29501;DHT22;16450;50.288;10.966;2023-12-29T17:29:35;9.30;99.90
29501;DHT22;16450;50.288;10.966;2023-12-29T17:32:37;9.30;99.90
29501;DHT22;16450;50.288;10.966;2023-12-29T17:35:40;9.30;99.90
29501;DHT22;16450;50.288;10.966;2023-12-29T17:38:41;9.20;99.90
29501;DHT22;16450;50.288;10.966;2023-12-29T17:41:44;9.20;99.90
29501;DHT22;16450;50.288;10.966;2023-12-29T17:44:46;9.20;99.90
29501;DHT22;16450;50.288;10.966;2023-12-29T17:47:47;9.20;99.90
29501;DHT22;16450;50.288;10.966;2023-12-29T17:50:49;9.30;99.90
29501;DHT22;16450;50.288;10.966;2023-12-29T17:53:51;9.20;99.90
29501;DHT22;16450;50.288;10.966;2023-12-29T17:56:53;9.30;99.90
29501;DHT22;16450;50.288;10.966;2023-12-29T17:59:55;9.20;99.90
29501;DHT22;16450;50.288;10.966;2023-12-29T18:02:57;9.20;99.90
29501;DHT22;16450;50.288;10.966;2023-12-29T18:06:03;9.20;99.90
29501;DHT22;16450;50.288;10.966;2023-12-29T18:09:05;9.20;99.90
29501;DHT22;16450;50.288;10.966;2023-12-29T18:12:08;9.20;99.90
29501;DHT22;16450;50.288;10.966;2023-12-29T18:15:10;9.20;99.90
29501;DHT22;16450;50.288;10.966;2023-12-29T18:18:16;9.20;99.90
29501;DHT22;16450;50.288;10.966;2023-12-29T18:21:18;9.20;99.90
29501;DHT22;16450;50.288;10.966;2023-12-29T18:24:20;9.20;99.90
29501;DHT22;16450;50.288;10.966;2023-12-29T18:27:22;9.20;99.90
29501;DHT22;16450;50.288;10.966;2023-12-29T18:30:23;9.20;99.90
29501;DHT22;16450;50.288;10.966;2023-12-29T18:33:25;9.20;99.90
29501;DHT22;16450;50.288;10.966;2023-12-29T18:36:29;9.20;99.90
29501;DHT22;16450;50.288;10.966;2023-12-29T18:39:31;9.20;99.90
29501;DHT22;16450;50.288;10.966;2023-12-29T18:42:35;9.20;99.90
29501;DHT22;16450;50.288;10.966;2023-12-29T18:45:37;9.20;99.90
29501;DHT22;16450;50.288;10.966;2023-12-29T18:48:39;9.20;99.90
29501;DHT22;16450;50.288;10.966;2023-12-29T18:51:42;9.20;99.90
29501;DHT22;16450;50.288;10.966;2023-12-29T18:54:47;9.20;99.90
29501;DHT22;16450;50.288;10.966;2023-12-29T18:57:49;9.10;99.90
29501;DHT22;16450;50.288;10.966;2023-12-29T19:00:51;9.20;99.90
29501;DHT22;16450;50.288;10.966;2023-12-29T19:03:56;9.20;99.90
29501;DHT22;16450;50.288;10.966;2023-12-29T19:07:01;9.10;99.90
29501;DHT22;16450;50.288;10.966;2023-12-29T19:10:03;9.10;99.90
29501;DHT22;16450;50.288;10.966;2023-12-29T19:13:05;9.10;99.90
29501;DHT22;16450;50.288;10.966;2023-12-29T19:16:07;9.10;99.90
29501;DHT22;16450;50.288;10.966;2023-12-29T19:19:11;9.10;99.90
29501;DHT22;16450;50.288;10.966;2023-12-29T19:22:14;9.10;99.90
29501;DHT22;16450;50.288;10.966;2023-12-29T19:25:16;9.10;99.90
29501;DHT22;16450;50.288;10.966;2023-12-29T19:28:18;9.10;99.90
29501;DHT22;16450;50.288;10.966;2023-12-29T19:31:20;9.10;99.90